Time;durP1;ratioP1;P1;durP2;ratioP2;P2;SDS_P1;SDS_P2;PMS_P1;PMS_P2;Temp;Humidity;BMP_temperature;BMP_pressure;BME280_temperature;BME280_humidity;BME280_pressure;Samples;Min_cycle;Max_cycle;Signal;HPM_P1;HPM_P2
2023/10/12 00:00:55;;;;;;;14.88;2.65;;;13.50;99.90;;;;;;5057104;28;20476;-84
2023/10/12 00:03:21;;;;;;;9.77;1.67;;;13.50;99.90;;;;;;5056941;28;20063;-85
2023/10/12 00:05:47;;;;;;;11.85;1.77;;;13.40;99.90;;;;;;5057059;28;20112;-86
2023/10/12 00:08:30;;;;;;;9.27;1.13;;;13.40;99.90;;;;;;5055988;28;20045;-85
2023/10/12 00:10:56;;;;;;;12.15;1.90;;;13.30;99.90;;;;;;5057025;28;20048;-86
2023/10/12 00:13:28;;;;;;;12.82;1.73;;;13.40;99.90;;;;;;5055666;28;20037;-86
2023/10/12 00:15:55;;;;;;;9.68;2.00;;;13.40;99.90;;;;;;5055750;28;20111;-86
2023/10/12 00:18:22;;;;;;;8.57;1.10;;;13.40;99.90;;;;;;5055345;28;20049;-87
2023/10/12 00:20:52;;;;;;;7.70;1.42;;;13.30;99.90;;;;;;5056843;28;20041;-85
2023/10/12 00:23:17;;;;;;;11.90;1.77;;;13.20;99.90;;;;;;5055723;28;20076;-86
2023/10/12 00:25:47;;;;;;;9.52;1.73;;;13.20;99.90;;;;;;5055414;28;20448;-86
2023/10/12 00:28:17;;;;;;;11.00;1.50;;;13.20;99.90;;;;;;5055196;28;20095;-86
2023/10/12 00:30:46;;;;;;;10.02;1.52;;;13.10;99.90;;;;;;5055546;28;20049;-85
2023/10/12 00:33:12;;;;;;;9.00;1.55;;;13.20;99.90;;;;;;5056428;28;20056;-84
2023/10/12 00:35:38;;;;;;;11.43;1.80;;;13.20;99.90;;;;;;5055234;28;20041;-86
2023/10/12 00:38:15;;;;;;;11.13;1.40;;;13.20;99.90;;;;;;5055328;28;20045;-83
2023/10/12 00:40:55;;;;;;;12.73;2.10;;;13.20;99.90;;;;;;5054892;28;20053;-86
2023/10/12 00:43:21;;;;;;;13.45;2.67;;;13.20;99.90;;;;;;5056456;28;20068;-85
2023/10/12 00:45:47;;;;;;;13.63;2.75;;;13.10;99.90;;;;;;5055262;28;20477;-86
2023/10/12 00:48:16;;;;;;;15.02;1.55;;;13.10;99.90;;;;;;5055218;28;20095;-85
2023/10/12 00:50:45;;;;;;;9.70;1.58;;;13.10;99.90;;;;;;5055114;28;20063;-85
2023/10/12 00:53:22;;;;;;;13.35;1.60;;;13.20;99.90;;;;;;5055057;28;20057;-86
2023/10/12 00:55:48;;;;;;;13.15;1.77;;;13.10;99.90;;;;;;5056158;28;20090;-85
2023/10/12 00:58:15;;;;;;;13.30;1.65;;;13.10;99.90;;;;;;5056081;28;20098;-85
2023/10/12 01:00:54;;;;;;;13.10;2.13;;;13.20;99.90;;;;;;5054979;28;20043;-84
2023/10/12 01:08:42;;;;;;;10.52;1.55;;;13.10;99.90;;;;;;5054775;28;20111;-85
2023/10/12 01:13:49;;;;;;;10.20;1.48;;;13.20;99.90;;;;;;5054597;28;20053;-86
2023/10/12 01:16:21;;;;;;;12.40;1.35;;;13.10;99.90;;;;;;5054576;28;20053;-86
2023/10/12 01:18:50;;;;;;;14.23;1.52;;;13.10;99.90;;;;;;5054250;28;20423;-85
2023/10/12 01:21:16;;;;;;;13.20;1.65;;;13.10;99.90;;;;;;5055675;28;20052;-85
2023/10/12 01:23:50;;;;;;;14.43;1.92;;;13.20;99.90;;;;;;5054321;28;20048;-85
2023/10/12 01:26:16;;;;;;;8.63;1.23;;;13.10;99.90;;;;;;5054162;28;20037;-85
2023/10/12 01:28:45;;;;;;;10.43;1.80;;;13.10;99.90;;;;;;5054123;28;20041;-85
2023/10/12 01:31:11;;;;;;;6.45;1.15;;;13.10;99.90;;;;;;5054141;28;20045;-85
2023/10/12 01:33:41;;;;;;;13.57;2.40;;;13.10;99.90;;;;;;5053994;28;20097;-84
2023/10/12 01:36:07;;;;;;;6.55;0.85;;;13.10;99.90;;;;;;5054407;28;20076;-84
2023/10/12 01:38:37;;;;;;;10.50;1.38;;;13.10;99.90;;;;;;5055257;28;20068;-83
2023/10/12 01:41:09;;;;;;;10.80;1.40;;;13.20;99.90;;;;;;5053758;28;20118;-85
2023/10/12 01:43:38;;;;;;;10.95;1.65;;;13.10;99.90;;;;;;5053921;28;20484;-84
2023/10/12 01:46:07;;;;;;;10.73;1.15;;;13.10;99.90;;;;;;5054083;28;20540;-85
2023/10/12 01:48:34;;;;;;;11.95;1.27;;;13.10;99.90;;;;;;5053845;28;20059;-85
2023/10/12 01:51:08;;;;;;;10.55;1.20;;;13.10;99.90;;;;;;5055101;28;20041;-85
2023/10/12 01:53:34;;;;;;;7.93;1.20;;;13.10;99.90;;;;;;5053882;28;20079;-85
2023/10/12 01:55:59;;;;;;;7.75;1.20;;;13.10;99.90;;;;;;5053564;28;20370;-84
2023/10/12 01:58:28;;;;;;;8.30;1.63;;;13.10;99.90;;;;;;5053432;28;20052;-85
2023/10/12 02:00:55;;;;;;;9.82;1.15;;;13.00;99.90;;;;;;5053541;28;20071;-86
2023/10/12 02:03:37;;;;;;;12.20;1.38;;;13.00;99.90;;;;;;5053589;28;20049;-85
2023/10/12 02:06:06;;;;;;;7.13;1.10;;;13.00;99.90;;;;;;5053604;28;20045;-85
2023/10/12 02:08:45;;;;;;;10.82;1.33;;;13.00;99.90;;;;;;5053112;28;20412;-85
2023/10/12 02:11:26;;;;;;;12.52;1.70;;;13.00;99.90;;;;;;5053531;28;20041;-85
2023/10/12 02:14:00;;;;;;;11.73;2.13;;;12.90;99.90;;;;;;5033787;28;20071;-85
2023/10/12 02:16:37;;;;;;;8.45;1.55;;;12.90;99.90;;;;;;5033505;28;20396;-85
2023/10/12 02:19:07;;;;;;;9.23;1.48;;;12.90;99.90;;;;;;5034605;28;20081;-85
2023/10/12 02:21:37;;;;;;;11.32;1.60;;;12.90;99.90;;;;;;5034758;28;20049;-85
2023/10/12 02:26:37;;;;;;;11.68;1.52;;;12.90;99.90;;;;;;5033077;28;20152;-85
2023/10/12 02:31:45;;;;;;;;;;;12.90;99.90;;;;;;5033662;28;20056;-85
2023/10/12 02:34:17;;;;;;;7.78;1.73;;;12.80;99.90;;;;;;5033106;28;19921;-85
2023/10/12 02:39:41;;;;;;;12.50;2.05;;;12.90;99.90;;;;;;5033893;28;20489;-85
2023/10/12 02:44:57;;;;;;;11.00;1.80;;;12.80;99.90;;;;;;5033021;28;20131;-84
2023/10/12 02:47:30;;;;;;;7.53;1.35;;;12.80;99.90;;;;;;5032854;28;20052;-85
2023/10/12 02:50:01;;;;;;;12.68;1.67;;;12.70;99.90;;;;;;5033939;28;20148;-84
2023/10/12 02:52:33;;;;;;;10.15;1.58;;;12.70;99.90;;;;;;5032717;28;20042;-84
2023/10/12 02:55:08;;;;;;;6.15;1.38;;;12.70;99.90;;;;;;5033007;28;20132;-84
2023/10/12 02:57:34;;;;;;;7.93;1.13;;;12.70;99.90;;;;;;5032681;28;20103;-85
2023/10/12 03:00:08;;;;;;;12.45;1.35;;;12.70;99.90;;;;;;5032613;28;20041;-85
2023/10/12 03:02:34;;;;;;;12.00;2.08;;;12.70;99.90;;;;;;5032749;28;20132;-84
2023/10/12 03:05:07;;;;;;;9.60;1.23;;;12.70;99.90;;;;;;5032460;28;20129;-84
2023/10/12 03:07:38;;;;;;;8.65;1.15;;;12.70;99.90;;;;;;5033763;28;20048;-85
2023/10/12 03:10:24;;;;;;;7.20;0.95;;;12.70;99.90;;;;;;5032602;28;20081;-85
2023/10/12 03:12:54;;;;;;;13.43;1.63;;;12.60;99.90;;;;;;5032577;28;20042;-85
2023/10/12 03:15:44;;;;;;;16.25;1.60;;;12.70;99.90;;;;;;5032412;28;20117;-85
2023/10/12 03:18:13;;;;;;;11.38;1.50;;;12.70;99.90;;;;;;5032536;28;20103;-84
2023/10/12 03:20:39;;;;;;;9.98;1.58;;;12.60;99.90;;;;;;5031492;28;20128;-84
2023/10/12 03:23:16;;;;;;;9.90;1.50;;;12.70;99.90;;;;;;5032143;28;20144;-84
2023/10/12 03:25:51;;;;;;;7.63;1.20;;;12.70;99.90;;;;;;5032965;28;20045;-84
2023/10/12 03:28:30;;;;;;;7.85;1.35;;;12.70;99.90;;;;;;5033577;28;20052;-84
2023/10/12 03:34:01;;;;;;;9.25;1.17;;;12.70;99.90;;;;;;4975628;28;20140;-84
2023/10/12 03:36:33;;;;;;;9.68;1.45;;;12.70;99.90;;;;;;5019873;28;20550;-84
2023/10/12 03:47:01;;;;;;;13.65;3.08;;;12.70;99.90;;;;;;5033419;28;20047;-85
2023/10/12 03:52:13;;;;;;;8.05;1.42;;;12.70;99.90;;;;;;5031928;28;20456;-85
2023/10/12 03:54:39;;;;;;;10.07;1.63;;;12.70;99.90;;;;;;5032188;28;20053;-85
2023/10/12 03:57:19;;;;;;;9.38;1.10;;;12.60;99.90;;;;;;5032162;28;20045;-85
2023/10/12 04:00:22;;;;;;;12.48;1.25;;;12.60;99.90;;;;;;5031860;28;20091;-85
2023/10/12 04:08:00;;;;;;;9.60;1.05;;;12.60;99.90;;;;;;5032178;28;20124;-84
2023/10/12 04:18:35;;;;;;;8.23;1.20;;;12.60;99.90;;;;;;5033132;28;20072;-85
2023/10/12 04:21:03;;;;;;;7.72;1.90;;;12.60;99.90;;;;;;5031818;28;20045;-84
2023/10/12 04:28:56;;;;;;;6.97;1.77;;;12.50;99.90;;;;;;5032036;28;20050;-85
2023/10/12 04:36:48;;;;;;;8.70;1.60;;;12.50;99.90;;;;;;5036476;28;20520;-84
2023/10/12 04:39:24;;;;;;;14.20;1.98;;;12.50;99.90;;;;;;5035032;28;20049;-84
2023/10/12 04:42:34;;;;;;;8.20;1.13;;;12.50;99.90;;;;;;5035282;28;20084;-84
2023/10/12 04:44:43;;;;;;;9.70;1.85;;;12.50;99.90;;;;;;5027112;28;20546;-84
2023/10/12 04:47:10;;;;;;;15.52;1.65;;;12.50;99.90;;;;;;5035098;28;20058;-85
2023/10/12 04:57:26;;;;;;;10.05;1.20;;;12.50;99.90;;;;;;5034749;28;20060;-85
2023/10/12 05:00:06;;;;;;;8.73;1.75;;;12.50;99.90;;;;;;5035045;28;20192;-84
2023/10/12 05:07:53;;;;;;;9.82;1.52;;;12.50;99.90;;;;;;5034598;28;20049;-84
2023/10/12 05:13:04;;;;;;;10.23;1.67;;;12.60;99.90;;;;;;5034682;28;20053;-83
2023/10/12 05:15:42;;;;;;;13.25;1.55;;;12.60;99.90;;;;;;5034891;28;20110;-84
2023/10/12 05:18:09;;;;;;;7.18;1.20;;;12.60;99.90;;;;;;5034375;28;20041;-84
2023/10/12 05:20:36;;;;;;;11.70;1.70;;;12.70;99.90;;;;;;5034727;28;20088;-85
2023/10/12 05:23:03;;;;;;;13.18;1.55;;;12.80;99.90;;;;;;5034434;28;20073;-85
2023/10/12 05:25:38;;;;;;;8.73;1.45;;;12.80;99.90;;;;;;5034316;28;20045;-85
2023/10/12 05:28:14;;;;;;;12.32;1.40;;;12.80;99.90;;;;;;5034402;28;20049;-84
2023/10/12 05:30:54;;;;;;;14.73;1.60;;;12.80;99.90;;;;;;5035766;28;20045;-84
2023/10/12 05:36:14;;;;;;;10.90;1.15;;;12.80;99.90;;;;;;5035578;28;20099;-84
2023/10/12 05:38:51;;;;;;;9.52;1.25;;;12.80;99.90;;;;;;5033981;28;20095;-84
2023/10/12 05:41:34;;;;;;;13.40;1.10;;;12.80;99.90;;;;;;5033924;28;20096;-84
2023/10/12 05:44:08;;;;;;;7.60;0.85;;;12.80;99.90;;;;;;5033216;28;20061;-84
2023/10/12 05:46:38;;;;;;;11.40;2.05;;;12.80;99.90;;;;;;5033985;28;20050;-84
2023/10/12 05:49:13;;;;;;;9.00;1.65;;;12.80;99.90;;;;;;5034971;28;20049;-84
2023/10/12 05:51:45;;;;;;;11.48;1.92;;;12.80;99.90;;;;;;5034885;28;20505;-84
2023/10/12 05:54:15;;;;;;;13.77;2.30;;;12.80;99.90;;;;;;5033697;28;20073;-84
2023/10/12 05:56:43;;;;;;;9.10;1.60;;;12.80;99.90;;;;;;5033323;28;20303;-83
2023/10/12 05:59:12;;;;;;;8.82;2.15;;;12.70;99.90;;;;;;5032747;28;20129;-83
2023/10/12 06:01:48;;;;;;;7.00;0.88;;;12.80;99.90;;;;;;5034374;28;20042;-83
2023/10/12 06:04:23;;;;;;;4.03;1.13;;;12.80;99.90;;;;;;5034037;28;20046;-83
2023/10/12 06:06:51;;;;;;;11.68;1.48;;;12.80;99.90;;;;;;5033656;28;20100;-83
2023/10/12 06:09:23;;;;;;;16.23;1.90;;;12.70;99.90;;;;;;5033194;28;20053;-83
2023/10/12 06:11:51;;;;;;;7.45;1.80;;;12.80;99.90;;;;;;5033563;28;20128;-83
2023/10/12 06:14:20;;;;;;;8.35;1.42;;;12.70;99.90;;;;;;5033663;28;20077;-83
2023/10/12 06:16:46;;;;;;;14.38;1.90;;;12.70;99.90;;;;;;5034482;28;20045;-84
2023/10/12 06:19:23;;;;;;;8.15;1.77;;;12.70;99.90;;;;;;5032971;28;20091;-83
2023/10/12 06:21:52;;;;;;;12.55;1.95;;;12.60;99.90;;;;;;5033305;28;20041;-84
2023/10/12 06:24:23;;;;;;;10.95;1.40;;;12.60;99.90;;;;;;5033253;28;20076;-83
2023/10/12 06:26:52;;;;;;;11.07;1.55;;;12.50;99.90;;;;;;5033261;28;20059;-83
2023/10/12 06:29:24;;;;;;;9.70;1.33;;;12.50;99.90;;;;;;5033146;28;20119;-84
2023/10/12 06:31:54;;;;;;;11.50;1.77;;;12.50;99.90;;;;;;5033012;28;20056;-84
2023/10/12 06:34:23;;;;;;;12.10;1.60;;;12.50;99.90;;;;;;5034793;28;20297;-82
2023/10/12 06:36:57;;;;;;;10.98;1.50;;;12.50;99.90;;;;;;5041238;28;20083;-83
2023/10/12 06:44:27;;;;;;;11.35;1.50;;;12.60;99.90;;;;;;5032758;28;20486;-82
2023/10/12 06:46:57;;;;;;;15.73;1.85;;;12.60;99.90;;;;;;5032337;28;20409;-82
2023/10/12 06:49:23;;;;;;;10.40;1.35;;;12.60;99.90;;;;;;5032531;28;20435;-82
2023/10/12 06:52:00;;;;;;;15.05;1.60;;;12.60;99.90;;;;;;5033721;28;20050;-82
2023/10/12 06:54:32;;;;;;;14.25;1.63;;;12.60;99.90;;;;;;5032653;28;20053;-82
2023/10/12 07:02:29;;;;;;;12.95;2.05;;;12.70;99.90;;;;;;5032453;28;20063;-81
2023/10/12 07:04:57;;;;;;;16.80;3.13;;;12.80;99.90;;;;;;5032275;28;20045;-81
2023/10/12 07:07:28;;;;;;;13.90;1.95;;;12.90;99.90;;;;;;5032123;28;20099;-81
2023/10/12 07:10:13;;;;;;;10.07;1.50;;;12.90;99.90;;;;;;5032142;28;20049;-81
2023/10/12 07:12:48;;;;;;;10.75;1.50;;;13.00;99.90;;;;;;5032087;28;20041;-81
2023/10/12 07:15:23;;;;;;;6.05;1.08;;;13.00;99.90;;;;;;5032376;28;20058;-82
2023/10/12 07:17:50;;;;;;;11.43;1.42;;;13.10;99.90;;;;;;5032024;28;20054;-81
2023/10/12 07:25:45;;;;;;;7.80;1.55;;;13.20;99.90;;;;;;5031884;28;20116;-81
2023/10/12 07:31:23;;;;;;;9.75;1.17;;;13.30;99.90;;;;;;5031376;28;20489;-82
2023/10/12 07:39:22;;;;;;;11.15;1.20;;;13.30;99.90;;;;;;4988425;28;20061;-82
2023/10/12 07:41:56;;;;;;;11.13;1.27;;;13.30;99.90;;;;;;5032083;28;20054;-82
2023/10/12 07:44:27;;;;;;;15.20;1.65;;;13.40;99.90;;;;;;5031286;28;20053;-81
2023/10/12 07:46:57;;;;;;;10.73;1.38;;;13.40;99.90;;;;;;5031809;28;20053;-81
2023/10/12 07:57:19;;;;;;;8.20;1.33;;;13.70;99.90;;;;;;5031617;28;20053;-82
2023/10/12 08:02:43;;;;;;;10.48;1.30;;;13.70;99.90;;;;;;5031826;28;20068;-82
2023/10/12 08:23:58;;;;;;;;;;;14.00;99.90;;;;;;5036038;28;20405;-82
2023/10/12 08:31:45;;;;;;;13.88;1.27;;;13.90;99.90;;;;;;5035622;28;20064;-83
2023/10/12 08:34:41;;;;;;;7.47;1.42;;;13.90;99.90;;;;;;5036758;28;20037;-83
2023/10/12 08:40:01;;;;;;;10.68;1.45;;;13.80;99.90;;;;;;5034852;28;20068;-82
2023/10/12 08:45:17;;;;;;;10.25;1.65;;;13.80;99.90;;;;;;5035228;28;20053;-83
2023/10/12 08:47:51;;;;;;;11.40;1.77;;;13.80;99.90;;;;;;5035176;28;20053;-83
2023/10/12 08:52:50;;;;;;;9.65;1.88;;;13.80;99.90;;;;;;5034862;28;20087;-83
2023/10/12 08:55:24;;;;;;;7.97;2.22;;;13.80;99.90;;;;;;5034921;28;20067;-82
2023/10/12 08:58:13;;;;;;;9.50;1.55;;;13.90;99.90;;;;;;5034899;28;20124;-83
2023/10/12 09:00:42;;;;;;;13.73;1.60;;;13.90;99.90;;;;;;5034772;28;20054;-83
2023/10/12 09:03:32;;;;;;;8.77;1.50;;;13.90;99.90;;;;;;5034944;28;20055;-82
2023/10/12 09:05:58;;;;;;;12.35;1.70;;;13.90;99.90;;;;;;5036134;28;20044;-82
2023/10/12 09:08:39;;;;;;;10.00;1.80;;;14.00;99.90;;;;;;5035845;28;20049;-82
2023/10/12 09:13:35;;;;;;;8.70;1.20;;;14.10;99.90;;;;;;5035932;28;20052;-83
2023/10/12 09:16:14;;;;;;;9.38;1.02;;;14.00;99.90;;;;;;5034752;28;20091;-83
2023/10/12 09:18:46;;;;;;;12.90;1.55;;;14.00;99.90;;;;;;5033132;28;20049;-83
2023/10/12 09:26:34;;;;;;;9.68;1.35;;;14.00;99.90;;;;;;5034570;28;20057;-82
2023/10/12 09:32:23;;;;;;;15.10;1.60;;;14.00;99.90;;;;;;5017666;28;20068;-82
2023/10/12 09:35:03;;;;;;;10.68;1.70;;;14.10;99.90;;;;;;5034162;28;20401;-82
2023/10/12 09:37:51;;;;;;;9.25;2.15;;;14.20;99.90;;;;;;5034060;28;20053;-82
2023/10/12 09:40:27;;;;;;;7.75;1.48;;;14.20;99.90;;;;;;5034148;28;20057;-82
2023/10/12 09:43:06;;;;;;;7.63;1.33;;;14.30;99.90;;;;;;5035379;28;20053;-82
2023/10/12 09:45:35;;;;;;;11.60;2.45;;;14.40;99.90;;;;;;5033952;28;20046;-82
2023/10/12 09:48:05;;;;;;;6.18;1.42;;;14.50;99.90;;;;;;5033880;28;20057;-82
2023/10/12 09:50:34;;;;;;;6.38;1.45;;;14.60;99.90;;;;;;5035190;28;20067;-82
2023/10/12 09:53:12;;;;;;;7.72;1.20;;;14.70;99.90;;;;;;5034114;28;20084;-82
2023/10/12 09:55:40;;;;;;;9.27;1.00;;;14.70;99.90;;;;;;5034115;28;20053;-82
2023/10/12 09:58:22;;;;;;;11.68;1.20;;;14.70;99.90;;;;;;5033649;28;20124;-83
2023/10/12 10:03:42;;;;;;;8.05;1.20;;;14.70;99.90;;;;;;5035167;28;20049;-82
2023/10/12 10:06:19;;;;;;;11.55;1.40;;;14.70;99.90;;;;;;5033785;28;20497;-82
2023/10/12 10:09:09;;;;;;;9.52;1.20;;;14.70;99.90;;;;;;5033758;28;20064;-82
2023/10/12 10:11:36;;;;;;;10.40;1.98;;;14.70;99.90;;;;;;5033779;28;20049;-82
2023/10/12 10:14:03;;;;;;;8.35;1.95;;;14.90;99.90;;;;;;5033662;28;20057;-82
2023/10/12 10:16:45;;;;;;;6.90;1.20;;;14.90;99.90;;;;;;5033632;28;20090;-82
2023/10/12 10:19:13;;;;;;;13.23;1.58;;;14.90;99.90;;;;;;5033433;28;20044;-82
2023/10/12 10:21:50;;;;;;;14.10;1.83;;;15.00;99.90;;;;;;5033590;28;20052;-82
2023/10/12 10:24:19;;;;;;;7.22;1.20;;;15.10;99.90;;;;;;5033241;28;20551;-82
2023/10/12 10:26:50;;;;;;;12.02;1.27;;;15.10;99.90;;;;;;5033194;28;20053;-82
2023/10/12 10:29:18;;;;;;;10.32;1.10;;;15.10;99.90;;;;;;5033554;28;20077;-82
2023/10/12 10:31:50;;;;;;;8.38;1.70;;;15.20;99.90;;;;;;5032974;28;20478;-82
2023/10/12 10:34:23;;;;;;;8.57;1.40;;;15.20;99.90;;;;;;5033082;28;20049;-82
2023/10/12 10:36:53;;;;;;;13.00;1.55;;;15.30;99.90;;;;;;5033112;28;20052;-82
2023/10/12 10:41:46;;;;;;;13.20;2.25;;;15.40;99.90;;;;;;5033566;28;20049;-82
2023/10/12 10:44:16;;;;;;;7.65;1.40;;;15.50;99.90;;;;;;5032787;28;20064;-82
2023/10/12 10:46:54;;;;;;;6.32;1.33;;;15.50;99.90;;;;;;5032819;28;20486;-82
2023/10/12 10:49:21;;;;;;;11.57;1.60;;;15.60;99.90;;;;;;5033201;28;20049;-82
2023/10/12 10:51:56;;;;;;;9.70;1.65;;;15.80;99.90;;;;;;5032822;28;20397;-82
2023/10/12 10:54:22;;;;;;;10.55;1.35;;;15.80;99.90;;;;;;5032689;28;20053;-82
2023/10/12 10:56:48;;;;;;;10.23;1.13;;;16.00;99.90;;;;;;5032771;28;20120;-82
2023/10/12 10:59:17;;;;;;;8.20;0.98;;;16.00;99.90;;;;;;5032383;28;20053;-82
2023/10/12 11:01:48;;;;;;;7.40;1.00;;;16.10;99.90;;;;;;5033811;28;20485;-82
2023/10/12 11:04:18;;;;;;;7.35;2.10;;;16.30;99.90;;;;;;5032444;28;20051;-82
2023/10/12 11:06:53;;;;;;;8.20;1.25;;;16.30;99.90;;;;;;5032489;28;20562;-82
2023/10/12 11:09:31;;;;;;;8.63;0.90;;;16.40;99.90;;;;;;5032735;28;20045;-82
2023/10/12 11:11:59;;;;;;;10.20;1.58;;;16.50;99.90;;;;;;5032815;28;20081;-82
2023/10/12 11:14:25;;;;;;;8.77;1.50;;;16.30;99.90;;;;;;5032402;28;20041;-82
2023/10/12 11:16:54;;;;;;;7.50;1.42;;;16.30;99.90;;;;;;5032537;28;20037;-82
2023/10/12 11:19:23;;;;;;;8.82;1.35;;;16.50;99.90;;;;;;5032258;28;20064;-82
2023/10/12 11:21:51;;;;;;;11.50;1.63;;;16.70;99.90;;;;;;5033568;28;20059;-82
2023/10/12 11:24:17;;;;;;;10.82;1.63;;;16.70;99.90;;;;;;5032576;28;20089;-82
2023/10/12 11:26:54;;;;;;;10.63;1.60;;;16.90;99.90;;;;;;5033604;28;20044;-82
2023/10/12 11:29:22;;;;;;;12.93;1.70;;;16.90;99.90;;;;;;5033624;28;20041;-82
2023/10/12 11:32:11;;;;;;;7.00;1.45;;;16.90;99.90;;;;;;5032320;28;20120;-82
2023/10/12 11:34:42;;;;;;;9.38;1.27;;;16.80;99.90;;;;;;5032454;28;20160;-81
2023/10/12 11:37:07;;;;;;;17.88;1.42;;;16.70;99.90;;;;;;5032131;28;20049;-82
2023/10/12 11:39:44;;;;;;;8.88;1.33;;;16.80;99.90;;;;;;5031875;28;20140;-82
2023/10/12 11:42:13;;;;;;;7.07;1.60;;;16.90;99.90;;;;;;5034598;28;20045;-82
2023/10/12 11:44:43;;;;;;;8.38;1.63;;;17.00;99.90;;;;;;5036260;28;20052;-82
2023/10/12 11:47:37;;;;;;;15.20;1.80;;;17.20;99.90;;;;;;5036002;28;20124;-82
2023/10/12 11:50:03;;;;;;;13.45;1.27;;;17.00;99.90;;;;;;5037233;28;20040;-82
2023/10/12 11:52:37;;;;;;;7.68;1.52;;;16.90;99.90;;;;;;5036285;28;20063;-82
2023/10/12 11:55:06;;;;;;;11.60;1.63;;;16.70;99.90;;;;;;5036861;28;20132;-82
2023/10/12 11:57:33;;;;;;;10.20;1.23;;;16.80;99.90;;;;;;5035816;28;20046;-82
2023/10/12 12:00:00;;;;;;;11.45;1.40;;;16.90;99.90;;;;;;5036176;28;20053;-82
2023/10/12 12:02:26;;;;;;;7.28;1.52;;;16.80;99.90;;;;;;5036032;28;20111;-82
2023/10/12 12:04:52;;;;;;;8.50;1.85;;;16.80;99.90;;;;;;5036070;28;20470;-82
2023/10/12 12:07:17;;;;;;;9.65;1.38;;;16.90;99.90;;;;;;5035923;28;20447;-82
2023/10/12 12:09:53;;;;;;;11.52;1.73;;;17.00;99.90;;;;;;5036017;28;20160;-82
2023/10/12 12:12:18;;;;;;;7.43;1.23;;;17.00;99.90;;;;;;5036079;28;20131;-82
2023/10/12 12:14:46;;;;;;;8.60;1.70;;;16.80;99.90;;;;;;5035649;28;20088;-82
2023/10/12 12:17:15;;;;;;;9.77;1.23;;;16.80;99.90;;;;;;5035630;28;20191;-82
2023/10/12 12:19:41;;;;;;;15.75;1.65;;;16.80;99.90;;;;;;5035644;28;20045;-82
2023/10/12 12:22:11;;;;;;;10.13;1.25;;;16.60;99.90;;;;;;5036780;28;20546;-82
2023/10/12 12:24:37;;;;;;;10.88;2.28;;;16.60;99.90;;;;;;5035788;28;20194;-82
2023/10/12 12:27:05;;;;;;;11.70;2.00;;;16.60;99.90;;;;;;5035437;28;20049;-82
2023/10/12 12:29:32;;;;;;;9.35;1.25;;;16.70;99.90;;;;;;5035520;28;20050;-82
2023/10/12 12:31:57;;;;;;;13.60;1.73;;;16.50;99.90;;;;;;5035448;28;20049;-82
2023/10/12 12:34:38;;;;;;;10.35;1.30;;;16.40;99.90;;;;;;5035167;28;20135;-82
2023/10/12 12:37:07;;;;;;;13.73;1.40;;;16.10;99.90;;;;;;5036567;28;20139;-82
2023/10/12 12:39:34;;;;;;;10.63;1.40;;;16.10;99.90;;;;;;5034941;28;20493;-82
2023/10/12 12:42:01;;;;;;;12.38;2.03;;;16.00;99.90;;;;;;5035138;28;20518;-82
2023/10/12 12:44:26;;;;;;;6.28;0.82;;;15.90;99.90;;;;;;5035108;28;20455;-82
2023/10/12 12:46:52;;;;;;;9.45;1.50;;;15.80;99.90;;;;;;5036497;28;20045;-82
2023/10/12 12:49:18;;;;;;;9.55;1.30;;;15.70;99.90;;;;;;5035371;28;20481;-82
2023/10/12 12:51:45;;;;;;;12.32;1.50;;;15.70;99.90;;;;;;5035300;28;20045;-82
2023/10/12 12:54:11;;;;;;;5.70;1.30;;;15.70;99.90;;;;;;5034601;28;20054;-82
2023/10/12 12:56:37;;;;;;;9.93;1.95;;;15.70;99.90;;;;;;5035082;28;20076;-82
2023/10/12 12:59:04;;;;;;;7.93;1.42;;;15.60;99.90;;;;;;5034874;28;20077;-82
2023/10/12 13:01:31;;;;;;;9.52;1.50;;;15.60;99.90;;;;;;5034989;28;20095;-82
2023/10/12 13:03:57;;;;;;;13.20;1.45;;;15.60;99.90;;;;;;5034745;28;20056;-82
2023/10/12 13:06:24;;;;;;;14.02;1.30;;;15.60;99.90;;;;;;5034990;28;20072;-82
2023/10/12 13:08:50;;;;;;;10.93;1.27;;;15.60;99.90;;;;;;5034792;28;20510;-82
2023/10/12 13:11:19;;;;;;;10.52;1.35;;;15.70;99.90;;;;;;5034609;28;20125;-82
2023/10/12 13:13:47;;;;;;;9.85;1.42;;;15.80;99.90;;;;;;5034459;28;20510;-82
2023/10/12 13:16:13;;;;;;;10.32;1.10;;;15.90;99.90;;;;;;5034763;28;20481;-82
2023/10/12 13:18:40;;;;;;;10.52;1.70;;;15.90;99.90;;;;;;5034146;28;20056;-82
2023/10/12 13:21:14;;;;;;;11.82;1.40;;;15.80;99.90;;;;;;5034488;28;20388;-82
2023/10/12 13:23:40;;;;;;;8.15;1.10;;;15.90;99.90;;;;;;5035839;28;20042;-82
2023/10/12 13:26:10;;;;;;;12.30;1.52;;;15.80;99.90;;;;;;5035396;28;20080;-82
2023/10/12 13:28:38;;;;;;;9.60;1.35;;;15.70;99.90;;;;;;5035605;28;20116;-83
2023/10/12 13:31:05;;;;;;;10.05;1.63;;;15.70;99.90;;;;;;5034137;28;20095;-82
2023/10/12 13:33:31;;;;;;;7.32;1.73;;;15.60;99.90;;;;;;5034080;28;20045;-82
2023/10/12 13:35:58;;;;;;;10.38;1.27;;;15.60;99.90;;;;;;5034062;28;20428;-83
2023/10/12 13:38:29;;;;;;;7.40;1.23;;;15.60;99.90;;;;;;5034051;28;20053;-83
2023/10/12 13:40:55;;;;;;;10.30;1.42;;;15.50;99.90;;;;;;5035142;28;20190;-82
2023/10/12 13:43:30;;;;;;;8.10;1.48;;;15.50;99.90;;;;;;5035135;28;20571;-82
2023/10/12 13:45:56;;;;;;;10.88;1.23;;;15.50;99.90;;;;;;5033837;28;20174;-82
2023/10/12 13:48:27;;;;;;;9.43;1.40;;;15.50;99.90;;;;;;5035085;28;20124;-83
2023/10/12 13:51:02;;;;;;;10.30;1.42;;;15.50;99.90;;;;;;5034002;28;20045;-82
2023/10/12 13:53:28;;;;;;;9.52;1.40;;;15.40;99.90;;;;;;5033984;28;20083;-83
2023/10/12 13:55:54;;;;;;;9.60;1.27;;;15.50;99.90;;;;;;5033586;28;20049;-83
2023/10/12 13:58:24;;;;;;;10.02;1.25;;;15.50;99.90;;;;;;5033594;28;20053;-83
2023/10/12 14:00:54;;;;;;;10.73;1.23;;;15.50;99.90;;;;;;5034139;28;20046;-83
2023/10/12 14:03:29;;;;;;;8.55;1.40;;;15.50;99.90;;;;;;5033347;28;20041;-83
2023/10/12 14:05:56;;;;;;;8.25;1.48;;;15.50;99.90;;;;;;5032796;28;20045;-83
2023/10/12 14:08:23;;;;;;;12.00;1.17;;;15.50;99.90;;;;;;5034890;28;20099;-83
2023/10/12 14:10:51;;;;;;;10.30;1.40;;;15.30;99.90;;;;;;5033553;28;20128;-83
2023/10/12 14:13:17;;;;;;;11.15;1.85;;;15.40;99.90;;;;;;5033589;28;20053;-83
2023/10/12 14:15:43;;;;;;;9.75;1.00;;;15.30;99.90;;;;;;5034736;28;20117;-83
2023/10/12 14:18:11;;;;;;;10.93;1.35;;;15.10;99.90;;;;;;5033277;28;20536;-83
2023/10/12 14:20:39;;;;;;;10.00;2.28;;;15.10;99.90;;;;;;5033424;28;20084;-83
2023/10/12 14:23:08;;;;;;;13.52;1.58;;;15.10;99.90;;;;;;5033097;28;20400;-83
2023/10/12 14:25:50;;;;;;;8.50;1.30;;;15.10;99.90;;;;;;5033093;28;20099;-83
2023/10/12 14:28:17;;;;;;;13.93;1.45;;;15.10;99.90;;;;;;5033392;28;20073;-83
2023/10/12 14:30:47;;;;;;;7.82;1.40;;;15.10;99.90;;;;;;5033394;28;20037;-83
2023/10/12 14:33:15;;;;;;;9.15;1.35;;;15.00;99.90;;;;;;5034323;28;20496;-83
2023/10/12 14:35:42;;;;;;;11.10;1.38;;;15.00;99.90;;;;;;5033166;28;20053;-83
2023/10/12 14:38:13;;;;;;;8.00;1.20;;;14.90;99.90;;;;;;5032799;28;20077;-83
2023/10/12 14:40:44;;;;;;;10.13;1.40;;;14.90;99.90;;;;;;5032654;28;20054;-83
2023/10/12 14:43:12;;;;;;;10.27;2.03;;;14.90;99.90;;;;;;5016460;28;20049;-83
2023/10/12 14:45:55;;;;;;;7.88;1.40;;;14.90;99.90;;;;;;5032944;28;20389;-83
2023/10/12 14:48:22;;;;;;;10.57;1.58;;;14.90;99.90;;;;;;5032909;28;20051;-82
2023/10/12 14:50:59;;;;;;;15.00;1.30;;;15.00;99.90;;;;;;5032937;28;20041;-83
2023/10/12 14:53:28;;;;;;;10.18;1.13;;;14.90;99.90;;;;;;5032726;28;20497;-83
2023/10/12 14:55:54;;;;;;;12.68;1.40;;;14.90;99.90;;;;;;5032677;28;20547;-83
2023/10/12 14:58:20;;;;;;;10.32;1.58;;;14.80;99.90;;;;;;5032598;28;20053;-83
2023/10/12 15:00:47;;;;;;;11.55;1.40;;;14.90;99.90;;;;;;5032532;28;20033;-83
2023/10/12 15:03:21;;;;;;;7.55;1.30;;;14.90;99.90;;;;;;5032450;28;20132;-83
2023/10/12 15:05:51;;;;;;;11.65;1.80;;;14.80;99.90;;;;;;5032486;28;20551;-83
2023/10/12 15:08:18;;;;;;;12.00;1.42;;;14.80;99.90;;;;;;5032345;28;20045;-83
2023/10/12 15:10:43;;;;;;;9.45;2.08;;;14.70;99.90;;;;;;5032400;28;20053;-83
2023/10/12 15:13:13;;;;;;;9.48;2.47;;;14.70;99.90;;;;;;5032191;28;20094;-83
2023/10/12 15:15:47;;;;;;;12.57;2.28;;;14.70;99.90;;;;;;5032228;28;20045;-83
2023/10/12 15:18:25;;;;;;;13.60;1.67;;;14.70;99.90;;;;;;5032819;28;20425;-84
2023/10/12 15:20:52;;;;;;;11.38;1.90;;;14.70;99.90;;;;;;5032162;28;20049;-83
2023/10/12 15:23:21;;;;;;;9.88;2.05;;;14.70;99.90;;;;;;5033699;28;20038;-83
2023/10/12 15:25:48;;;;;;;10.02;1.65;;;14.60;99.90;;;;;;5032276;28;20050;-83
2023/10/12 15:28:15;;;;;;;9.13;1.70;;;14.70;99.90;;;;;;5033560;28;20037;-83
2023/10/12 15:30:44;;;;;;;7.30;1.35;;;14.60;99.90;;;;;;5032318;28;20041;-84
2023/10/12 15:33:10;;;;;;;9.48;1.48;;;14.50;99.90;;;;;;5031741;28;20490;-83
2023/10/12 15:35:36;;;;;;;11.07;1.70;;;14.50;99.90;;;;;;5033203;28;20038;-83
2023/10/12 15:38:03;;;;;;;9.13;1.63;;;14.50;99.90;;;;;;5033309;28;20041;-83